sensor_id;sensor_type;location;lat;lon;timestamp;temperature;humidity
20526;DHT22;10421;49.142;9.232;2023-11-18T00:01:23;10.20;99.90
20526;DHT22;10421;49.142;9.232;2023-11-18T00:03:51;10.30;99.90
20526;DHT22;10421;49.142;9.232;2023-11-18T00:06:18;10.30;99.90
20526;DHT22;10421;49.142;9.232;2023-11-18T00:08:45;10.30;99.90
20526;DHT22;10421;49.142;9.232;2023-11-18T00:11:12;10.30;99.90
20526;DHT22;10421;49.142;9.232;2023-11-18T00:13:39;10.30;99.90
20526;DHT22;10421;49.142;9.232;2023-11-18T00:16:08;10.20;99.90
20526;DHT22;10421;49.142;9.232;2023-11-18T00:18:37;10.20;99.90
20526;DHT22;10421;49.142;9.232;2023-11-18T00:21:06;10.10;99.90
20526;DHT22;10421;49.142;9.232;2023-11-18T00:23:33;10.10;99.90
20526;DHT22;10421;49.142;9.232;2023-11-18T00:26:00;10.10;99.90
20526;DHT22;10421;49.142;9.232;2023-11-18T00:28:27;10.10;99.90
20526;DHT22;10421;49.142;9.232;2023-11-18T00:30:54;10.10;99.90
20526;DHT22;10421;49.142;9.232;2023-11-18T00:33:21;10.00;99.90
20526;DHT22;10421;49.142;9.232;2023-11-18T00:35:48;10.00;99.90
20526;DHT22;10421;49.142;9.232;2023-11-18T00:38:16;10.00;99.90
20526;DHT22;10421;49.142;9.232;2023-11-18T00:40:43;10.10;99.90
20526;DHT22;10421;49.142;9.232;2023-11-18T00:43:10;10.00;99.90
20526;DHT22;10421;49.142;9.232;2023-11-18T00:45:36;10.00;99.90
20526;DHT22;10421;49.142;9.232;2023-11-18T00:48:03;9.90;99.90
20526;DHT22;10421;49.142;9.232;2023-11-18T00:50:30;9.90;99.90
20526;DHT22;10421;49.142;9.232;2023-11-18T00:52:58;10.00;99.90
20526;DHT22;10421;49.142;9.232;2023-11-18T00:55:26;10.00;99.90
20526;DHT22;10421;49.142;9.232;2023-11-18T00:57:53;10.10;99.90
20526;DHT22;10421;49.142;9.232;2023-11-18T01:00:20;10.10;99.90
20526;DHT22;10421;49.142;9.232;2023-11-18T01:02:48;10.00;99.90
20526;DHT22;10421;49.142;9.232;2023-11-18T01:05:15;10.10;99.90
20526;DHT22;10421;49.142;9.232;2023-11-18T01:07:42;10.10;99.90
20526;DHT22;10421;49.142;9.232;2023-11-18T01:10:10;10.10;99.90
20526;DHT22;10421;49.142;9.232;2023-11-18T01:12:38;10.10;99.90
20526;DHT22;10421;49.142;9.232;2023-11-18T01:15:05;10.20;99.90
20526;DHT22;10421;49.142;9.232;2023-11-18T01:17:33;10.20;99.90
20526;DHT22;10421;49.142;9.232;2023-11-18T01:19:59;10.20;99.90
20526;DHT22;10421;49.142;9.232;2023-11-18T01:22:32;10.20;99.90
20526;DHT22;10421;49.142;9.232;2023-11-18T01:25:00;10.30;99.90
20526;DHT22;10421;49.142;9.232;2023-11-18T01:27:26;10.30;99.90
20526;DHT22;10421;49.142;9.232;2023-11-18T01:29:54;10.30;99.90
20526;DHT22;10421;49.142;9.232;2023-11-18T01:32:21;10.30;99.90
20526;DHT22;10421;49.142;9.232;2023-11-18T01:34:48;10.30;99.90
20526;DHT22;10421;49.142;9.232;2023-11-18T01:37:16;10.30;99.90
20526;DHT22;10421;49.142;9.232;2023-11-18T01:39:43;10.30;99.90
20526;DHT22;10421;49.142;9.232;2023-11-18T01:42:10;10.30;99.90
20526;DHT22;10421;49.142;9.232;2023-11-18T01:44:37;10.30;99.90
20526;DHT22;10421;49.142;9.232;2023-11-18T01:47:07;10.20;99.90
20526;DHT22;10421;49.142;9.232;2023-11-18T01:49:37;10.20;99.90
20526;DHT22;10421;49.142;9.232;2023-11-18T01:52:05;10.20;99.90
20526;DHT22;10421;49.142;9.232;2023-11-18T01:54:34;10.10;99.90
20526;DHT22;10421;49.142;9.232;2023-11-18T01:57:03;10.20;99.90
20526;DHT22;10421;49.142;9.232;2023-11-18T01:59:31;10.20;99.90
20526;DHT22;10421;49.142;9.232;2023-11-18T02:01:59;10.10;99.90
20526;DHT22;10421;49.142;9.232;2023-11-18T02:04:28;10.10;99.90
20526;DHT22;10421;49.142;9.232;2023-11-18T02:06:56;10.10;99.90
20526;DHT22;10421;49.142;9.232;2023-11-18T02:09:23;10.10;99.90
20526;DHT22;10421;49.142;9.232;2023-11-18T02:11:58;10.10;99.90
20526;DHT22;10421;49.142;9.232;2023-11-18T02:14:28;10.10;99.90
20526;DHT22;10421;49.142;9.232;2023-11-18T02:16:59;10.10;99.90
20526;DHT22;10421;49.142;9.232;2023-11-18T02:19:28;10.00;99.90
20526;DHT22;10421;49.142;9.232;2023-11-18T02:21:56;10.00;99.90
20526;DHT22;10421;49.142;9.232;2023-11-18T02:24:27;10.00;99.90
20526;DHT22;10421;49.142;9.232;2023-11-18T02:26:59;10.00;99.90
20526;DHT22;10421;49.142;9.232;2023-11-18T02:29:28;10.00;99.90
20526;DHT22;10421;49.142;9.232;2023-11-18T02:32:00;10.00;99.90
20526;DHT22;10421;49.142;9.232;2023-11-18T02:34:31;10.00;99.90
20526;DHT22;10421;49.142;9.232;2023-11-18T02:37:02;9.90;99.90
20526;DHT22;10421;49.142;9.232;2023-11-18T02:39:34;10.00;99.90
20526;DHT22;10421;49.142;9.232;2023-11-18T02:42:07;10.00;99.90
20526;DHT22;10421;49.142;9.232;2023-11-18T02:44:35;10.10;99.90
20526;DHT22;10421;49.142;9.232;2023-11-18T02:47:02;10.10;99.90
20526;DHT22;10421;49.142;9.232;2023-11-18T02:49:30;10.10;99.90
20526;DHT22;10421;49.142;9.232;2023-11-18T02:51:57;10.00;99.90
20526;DHT22;10421;49.142;9.232;2023-11-18T02:54:24;10.00;99.90
20526;DHT22;10421;49.142;9.232;2023-11-18T02:56:51;10.00;99.90
20526;DHT22;10421;49.142;9.232;2023-11-18T02:59:19;10.00;99.90
20526;DHT22;10421;49.142;9.232;2023-11-18T03:01:46;10.00;99.90
20526;DHT22;10421;49.142;9.232;2023-11-18T03:04:14;10.00;99.90
20526;DHT22;10421;49.142;9.232;2023-11-18T03:06:41;10.00;99.90
20526;DHT22;10421;49.142;9.232;2023-11-18T03:09:08;10.00;99.90
20526;DHT22;10421;49.142;9.232;2023-11-18T03:11:36;10.00;99.90
20526;DHT22;10421;49.142;9.232;2023-11-18T03:14:03;10.00;99.90
20526;DHT22;10421;49.142;9.232;2023-11-18T03:16:36;10.00;99.90
20526;DHT22;10421;49.142;9.232;2023-11-18T03:19:03;9.90;99.90
20526;DHT22;10421;49.142;9.232;2023-11-18T03:21:30;9.90;99.90
20526;DHT22;10421;49.142;9.232;2023-11-18T03:23:57;9.90;99.90
20526;DHT22;10421;49.142;9.232;2023-11-18T03:26:24;9.90;99.90
20526;DHT22;10421;49.142;9.232;2023-11-18T03:28:51;9.80;99.90
20526;DHT22;10421;49.142;9.232;2023-11-18T03:31:18;9.80;99.90
20526;DHT22;10421;49.142;9.232;2023-11-18T03:33:46;9.70;99.90
20526;DHT22;10421;49.142;9.232;2023-11-18T03:36:13;9.70;99.90
20526;DHT22;10421;49.142;9.232;2023-11-18T03:38:43;9.70;99.90
20526;DHT22;10421;49.142;9.232;2023-11-18T03:41:10;9.70;99.90
20526;DHT22;10421;49.142;9.232;2023-11-18T03:43:38;9.70;99.90
20526;DHT22;10421;49.142;9.232;2023-11-18T03:46:05;9.70;99.90
20526;DHT22;10421;49.142;9.232;2023-11-18T03:48:32;9.80;99.90
20526;DHT22;10421;49.142;9.232;2023-11-18T03:51:01;9.80;99.90
20526;DHT22;10421;49.142;9.232;2023-11-18T03:53:28;9.80;99.90
20526;DHT22;10421;49.142;9.232;2023-11-18T03:55:55;9.80;99.90
20526;DHT22;10421;49.142;9.232;2023-11-18T03:58:22;9.80;99.90
20526;DHT22;10421;49.142;9.232;2023-11-18T04:00:49;9.80;99.90
20526;DHT22;10421;49.142;9.232;2023-11-18T04:03:15;9.80;99.90
20526;DHT22;10421;49.142;9.232;2023-11-18T04:05:42;9.80;99.90
20526;DHT22;10421;49.142;9.232;2023-11-18T04:08:10;9.80;99.90
20526;DHT22;10421;49.142;9.232;2023-11-18T04:10:37;9.80;99.90
20526;DHT22;10421;49.142;9.232;2023-11-18T04:13:04;9.80;99.90
20526;DHT22;10421;49.142;9.232;2023-11-18T04:15:30;9.90;99.90
20526;DHT22;10421;49.142;9.232;2023-11-18T04:17:57;10.00;99.90
20526;DHT22;10421;49.142;9.232;2023-11-18T04:20:25;10.00;99.90
20526;DHT22;10421;49.142;9.232;2023-11-18T04:22:52;10.10;99.90
20526;DHT22;10421;49.142;9.232;2023-11-18T04:25:21;10.10;99.90
20526;DHT22;10421;49.142;9.232;2023-11-18T04:27:47;10.10;99.90
20526;DHT22;10421;49.142;9.232;2023-11-18T04:30:14;10.10;99.90
20526;DHT22;10421;49.142;9.232;2023-11-18T04:32:41;10.10;99.90
20526;DHT22;10421;49.142;9.232;2023-11-18T04:35:08;10.10;99.90
20526;DHT22;10421;49.142;9.232;2023-11-18T04:37:37;10.10;99.90
20526;DHT22;10421;49.142;9.232;2023-11-18T04:40:06;10.00;99.90
20526;DHT22;10421;49.142;9.232;2023-11-18T04:42:38;9.90;99.90
20526;DHT22;10421;49.142;9.232;2023-11-18T04:45:05;9.90;99.90
20526;DHT22;10421;49.142;9.232;2023-11-18T04:47:32;9.80;99.90
20526;DHT22;10421;49.142;9.232;2023-11-18T04:49:59;9.80;99.90
20526;DHT22;10421;49.142;9.232;2023-11-18T04:52:26;9.80;99.90
20526;DHT22;10421;49.142;9.232;2023-11-18T04:54:53;9.90;99.90
20526;DHT22;10421;49.142;9.232;2023-11-18T04:57:19;9.90;99.90
20526;DHT22;10421;49.142;9.232;2023-11-18T04:59:47;9.90;99.90
20526;DHT22;10421;49.142;9.232;2023-11-18T05:02:14;9.80;99.90
20526;DHT22;10421;49.142;9.232;2023-11-18T05:04:41;9.60;99.90
20526;DHT22;10421;49.142;9.232;2023-11-18T05:07:08;9.60;99.90
20526;DHT22;10421;49.142;9.232;2023-11-18T05:09:35;9.50;99.90
20526;DHT22;10421;49.142;9.232;2023-11-18T05:12:03;9.50;99.90
20526;DHT22;10421;49.142;9.232;2023-11-18T05:14:30;9.50;99.90
20526;DHT22;10421;49.142;9.232;2023-11-18T05:16:59;9.40;99.90
20526;DHT22;10421;49.142;9.232;2023-11-18T05:19:27;9.40;99.90
20526;DHT22;10421;49.142;9.232;2023-11-18T05:21:54;9.40;99.90
20526;DHT22;10421;49.142;9.232;2023-11-18T05:24:21;9.40;99.90
20526;DHT22;10421;49.142;9.232;2023-11-18T05:26:47;9.50;99.90
20526;DHT22;10421;49.142;9.232;2023-11-18T05:29:14;9.50;99.90
20526;DHT22;10421;49.142;9.232;2023-11-18T05:31:42;9.50;99.90
20526;DHT22;10421;49.142;9.232;2023-11-18T05:34:10;9.60;99.90
20526;DHT22;10421;49.142;9.232;2023-11-18T05:36:38;9.60;99.90
20526;DHT22;10421;49.142;9.232;2023-11-18T05:39:06;9.60;99.90
20526;DHT22;10421;49.142;9.232;2023-11-18T05:41:34;9.60;99.90
20526;DHT22;10421;49.142;9.232;2023-11-18T05:44:05;9.60;99.90
20526;DHT22;10421;49.142;9.232;2023-11-18T05:46:34;9.70;99.90
20526;DHT22;10421;49.142;9.232;2023-11-18T05:49:02;9.70;99.90
20526;DHT22;10421;49.142;9.232;2023-11-18T05:51:34;9.70;99.90
20526;DHT22;10421;49.142;9.232;2023-11-18T05:54:01;9.70;99.90
20526;DHT22;10421;49.142;9.232;2023-11-18T05:56:28;9.60;99.90
20526;DHT22;10421;49.142;9.232;2023-11-18T05:58:54;9.60;99.90
20526;DHT22;10421;49.142;9.232;2023-11-18T06:01:21;9.60;99.90
20526;DHT22;10421;49.142;9.232;2023-11-18T06:03:48;9.60;99.90
20526;DHT22;10421;49.142;9.232;2023-11-18T06:06:16;9.70;99.90
20526;DHT22;10421;49.142;9.232;2023-11-18T06:08:44;9.70;99.90
20526;DHT22;10421;49.142;9.232;2023-11-18T06:11:13;9.70;99.90
20526;DHT22;10421;49.142;9.232;2023-11-18T06:13:41;9.70;99.90
20526;DHT22;10421;49.142;9.232;2023-11-18T06:16:10;9.70;99.90
20526;DHT22;10421;49.142;9.232;2023-11-18T06:18:40;9.80;99.90
20526;DHT22;10421;49.142;9.232;2023-11-18T06:21:13;9.70;99.90
20526;DHT22;10421;49.142;9.232;2023-11-18T06:23:40;9.80;99.90
20526;DHT22;10421;49.142;9.232;2023-11-18T06:26:08;9.80;99.90
20526;DHT22;10421;49.142;9.232;2023-11-18T06:28:37;9.80;99.90
20526;DHT22;10421;49.142;9.232;2023-11-18T06:31:04;9.80;99.90
20526;DHT22;10421;49.142;9.232;2023-11-18T06:33:36;9.90;99.90
20526;DHT22;10421;49.142;9.232;2023-11-18T06:36:04;9.90;99.90
20526;DHT22;10421;49.142;9.232;2023-11-18T06:38:31;9.90;99.90
20526;DHT22;10421;49.142;9.232;2023-11-18T06:41:00;10.00;99.90
20526;DHT22;10421;49.142;9.232;2023-11-18T06:43:29;10.00;99.90
20526;DHT22;10421;49.142;9.232;2023-11-18T06:46:07;10.10;99.90
20526;DHT22;10421;49.142;9.232;2023-11-18T06:48:36;10.10;99.90
20526;DHT22;10421;49.142;9.232;2023-11-18T06:51:03;10.10;99.90
20526;DHT22;10421;49.142;9.232;2023-11-18T06:53:31;10.20;99.90
20526;DHT22;10421;49.142;9.232;2023-11-18T06:55:58;10.20;99.90
20526;DHT22;10421;49.142;9.232;2023-11-18T06:58:25;10.20;99.90
20526;DHT22;10421;49.142;9.232;2023-11-18T07:00:53;10.20;99.90
20526;DHT22;10421;49.142;9.232;2023-11-18T07:03:21;10.10;99.90
20526;DHT22;10421;49.142;9.232;2023-11-18T07:05:48;10.00;99.90
20526;DHT22;10421;49.142;9.232;2023-11-18T07:08:14;9.90;99.90
20526;DHT22;10421;49.142;9.232;2023-11-18T07:10:41;9.80;99.90
20526;DHT22;10421;49.142;9.232;2023-11-18T07:13:08;9.80;99.90
20526;DHT22;10421;49.142;9.232;2023-11-18T07:15:36;9.70;99.90
20526;DHT22;10421;49.142;9.232;2023-11-18T07:18:04;9.60;99.90
20526;DHT22;10421;49.142;9.232;2023-11-18T07:20:30;9.70;99.90
20526;DHT22;10421;49.142;9.232;2023-11-18T07:22:56;9.60;99.90
20526;DHT22;10421;49.142;9.232;2023-11-18T07:25:23;9.70;99.90
20526;DHT22;10421;49.142;9.232;2023-11-18T07:27:50;9.80;99.90
20526;DHT22;10421;49.142;9.232;2023-11-18T07:30:17;9.80;99.90
20526;DHT22;10421;49.142;9.232;2023-11-18T07:32:44;9.80;99.90
20526;DHT22;10421;49.142;9.232;2023-11-18T07:35:12;9.90;99.90
20526;DHT22;10421;49.142;9.232;2023-11-18T07:37:39;10.00;99.90
20526;DHT22;10421;49.142;9.232;2023-11-18T07:40:07;10.10;99.90
20526;DHT22;10421;49.142;9.232;2023-11-18T07:42:37;10.20;99.90
20526;DHT22;10421;49.142;9.232;2023-11-18T07:45:05;10.40;99.90
20526;DHT22;10421;49.142;9.232;2023-11-18T07:47:43;10.50;99.90
20526;DHT22;10421;49.142;9.232;2023-11-18T07:50:09;10.70;99.90
20526;DHT22;10421;49.142;9.232;2023-11-18T07:52:39;11.00;99.90
20526;DHT22;10421;49.142;9.232;2023-11-18T07:55:06;11.40;99.90
20526;DHT22;10421;49.142;9.232;2023-11-18T07:57:38;11.80;99.90
20526;DHT22;10421;49.142;9.232;2023-11-18T08:00:06;12.20;99.90
20526;DHT22;10421;49.142;9.232;2023-11-18T08:02:34;12.60;99.90
20526;DHT22;10421;49.142;9.232;2023-11-18T08:05:02;12.80;99.90
20526;DHT22;10421;49.142;9.232;2023-11-18T08:07:33;12.90;99.90
20526;DHT22;10421;49.142;9.232;2023-11-18T08:10:01;12.90;99.90
20526;DHT22;10421;49.142;9.232;2023-11-18T08:12:29;12.60;99.40
20526;DHT22;10421;49.142;9.232;2023-11-18T08:14:56;12.40;99.30
20526;DHT22;10421;49.142;9.232;2023-11-18T08:17:23;12.20;99.40
20526;DHT22;10421;49.142;9.232;2023-11-18T08:19:51;12.00;99.30
20526;DHT22;10421;49.142;9.232;2023-11-18T08:22:18;11.80;99.80
20526;DHT22;10421;49.142;9.232;2023-11-18T08:24:48;11.80;99.80
20526;DHT22;10421;49.142;9.232;2023-11-18T08:27:17;11.70;99.80
20526;DHT22;10421;49.142;9.232;2023-11-18T08:29:44;11.60;99.50
20526;DHT22;10421;49.142;9.232;2023-11-18T08:32:11;11.50;99.50
20526;DHT22;10421;49.142;9.232;2023-11-18T08:34:38;11.40;99.70
20526;DHT22;10421;49.142;9.232;2023-11-18T08:37:06;11.30;99.90
20526;DHT22;10421;49.142;9.232;2023-11-18T08:39:35;11.20;99.90
20526;DHT22;10421;49.142;9.232;2023-11-18T08:42:01;11.10;99.90
20526;DHT22;10421;49.142;9.232;2023-11-18T08:44:30;10.90;99.90
20526;DHT22;10421;49.142;9.232;2023-11-18T08:46:57;10.80;99.90
20526;DHT22;10421;49.142;9.232;2023-11-18T08:49:24;10.70;99.90
20526;DHT22;10421;49.142;9.232;2023-11-18T08:51:55;10.50;99.90
20526;DHT22;10421;49.142;9.232;2023-11-18T08:54:24;10.40;99.90
20526;DHT22;10421;49.142;9.232;2023-11-18T08:57:02;10.40;99.90
20526;DHT22;10421;49.142;9.232;2023-11-18T08:59:30;10.50;99.90
20526;DHT22;10421;49.142;9.232;2023-11-18T09:01:58;10.60;99.90
20526;DHT22;10421;49.142;9.232;2023-11-18T09:04:25;10.60;99.90
20526;DHT22;10421;49.142;9.232;2023-11-18T09:06:53;10.70;99.90
20526;DHT22;10421;49.142;9.232;2023-11-18T09:09:25;10.70;99.90
20526;DHT22;10421;49.142;9.232;2023-11-18T09:11:53;11.00;99.90
20526;DHT22;10421;49.142;9.232;2023-11-18T09:14:22;11.20;99.90
20526;DHT22;10421;49.142;9.232;2023-11-18T09:16:51;11.50;99.90
20526;DHT22;10421;49.142;9.232;2023-11-18T09:19:20;11.70;99.90
20526;DHT22;10421;49.142;9.232;2023-11-18T09:21:47;12.00;99.90
20526;DHT22;10421;49.142;9.232;2023-11-18T09:24:14;12.30;99.50
20526;DHT22;10421;49.142;9.232;2023-11-18T09:26:45;12.60;99.60
20526;DHT22;10421;49.142;9.232;2023-11-18T09:29:15;12.90;98.80
20526;DHT22;10421;49.142;9.232;2023-11-18T09:31:43;13.10;97.70
20526;DHT22;10421;49.142;9.232;2023-11-18T09:34:14;13.30;97.30
20526;DHT22;10421;49.142;9.232;2023-11-18T09:36:42;13.60;97.30
20526;DHT22;10421;49.142;9.232;2023-11-18T09:39:09;13.70;96.80
20526;DHT22;10421;49.142;9.232;2023-11-18T09:41:41;13.90;96.30
20526;DHT22;10421;49.142;9.232;2023-11-18T09:44:09;14.00;96.30
20526;DHT22;10421;49.142;9.232;2023-11-18T09:46:41;14.10;96.00
20526;DHT22;10421;49.142;9.232;2023-11-18T09:49:23;14.00;95.90
20526;DHT22;10421;49.142;9.232;2023-11-18T09:51:59;13.80;95.00
20526;DHT22;10421;49.142;9.232;2023-11-18T09:54:33;13.60;95.10
20526;DHT22;10421;49.142;9.232;2023-11-18T09:57:07;13.50;95.30
20526;DHT22;10421;49.142;9.232;2023-11-18T09:59:42;13.30;95.60
20526;DHT22;10421;49.142;9.232;2023-11-18T10:02:10;13.30;95.70
20526;DHT22;10421;49.142;9.232;2023-11-18T10:04:39;13.20;95.70
20526;DHT22;10421;49.142;9.232;2023-11-18T10:07:06;13.20;95.80
20526;DHT22;10421;49.142;9.232;2023-11-18T10:09:35;13.20;95.70
20526;DHT22;10421;49.142;9.232;2023-11-18T10:12:06;13.20;95.80
20526;DHT22;10421;49.142;9.232;2023-11-18T10:14:34;13.00;95.80
20526;DHT22;10421;49.142;9.232;2023-11-18T10:17:04;12.90;95.90
20526;DHT22;10421;49.142;9.232;2023-11-18T10:19:51;12.90;96.00
20526;DHT22;10421;49.142;9.232;2023-11-18T10:22:21;12.80;96.00
20526;DHT22;10421;49.142;9.232;2023-11-18T10:24:49;12.80;96.20
20526;DHT22;10421;49.142;9.232;2023-11-18T10:27:20;12.90;96.20
20526;DHT22;10421;49.142;9.232;2023-11-18T10:29:48;12.90;96.30
20526;DHT22;10421;49.142;9.232;2023-11-18T10:32:17;13.00;96.10
20526;DHT22;10421;49.142;9.232;2023-11-18T10:34:47;13.00;96.10
20526;DHT22;10421;49.142;9.232;2023-11-18T10:37:16;12.70;96.20
20526;DHT22;10421;49.142;9.232;2023-11-18T10:39:47;12.50;96.30
20526;DHT22;10421;49.142;9.232;2023-11-18T10:42:17;12.40;96.70
20526;DHT22;10421;49.142;9.232;2023-11-18T10:44:55;12.30;96.70
20526;DHT22;10421;49.142;9.232;2023-11-18T10:47:24;12.10;96.90
20526;DHT22;10421;49.142;9.232;2023-11-18T10:49:52;12.00;97.40
20526;DHT22;10421;49.142;9.232;2023-11-18T10:52:22;11.90;97.60
20526;DHT22;10421;49.142;9.232;2023-11-18T10:54:51;11.80;97.70
20526;DHT22;10421;49.142;9.232;2023-11-18T10:57:20;11.70;98.00
20526;DHT22;10421;49.142;9.232;2023-11-18T10:59:58;11.70;98.10
20526;DHT22;10421;49.142;9.232;2023-11-18T11:02:27;11.60;98.20
20526;DHT22;10421;49.142;9.232;2023-11-18T11:05:00;11.50;98.40
20526;DHT22;10421;49.142;9.232;2023-11-18T11:07:29;11.40;98.60
20526;DHT22;10421;49.142;9.232;2023-11-18T11:09:59;11.30;98.70
20526;DHT22;10421;49.142;9.232;2023-11-18T11:12:33;11.30;98.70
20526;DHT22;10421;49.142;9.232;2023-11-18T11:15:06;11.20;98.70
20526;DHT22;10421;49.142;9.232;2023-11-18T11:17:42;11.30;98.80
20526;DHT22;10421;49.142;9.232;2023-11-18T11:20:13;11.30;98.80
20526;DHT22;10421;49.142;9.232;2023-11-18T11:22:56;11.20;98.90
20526;DHT22;10421;49.142;9.232;2023-11-18T11:25:37;11.20;99.00
20526;DHT22;10421;49.142;9.232;2023-11-18T11:28:11;11.20;99.40
20526;DHT22;10421;49.142;9.232;2023-11-18T11:30:43;11.20;99.60
20526;DHT22;10421;49.142;9.232;2023-11-18T11:33:17;11.30;99.50
20526;DHT22;10421;49.142;9.232;2023-11-18T11:35:48;11.30;99.20
20526;DHT22;10421;49.142;9.232;2023-11-18T11:38:17;11.30;99.10
20526;DHT22;10421;49.142;9.232;2023-11-18T11:40:45;11.40;99.20
20526;DHT22;10421;49.142;9.232;2023-11-18T11:43:13;11.40;99.20
20526;DHT22;10421;49.142;9.232;2023-11-18T11:45:47;11.40;99.30
20526;DHT22;10421;49.142;9.232;2023-11-18T11:48:14;11.30;99.30
20526;DHT22;10421;49.142;9.232;2023-11-18T11:50:55;11.20;99.40
20526;DHT22;10421;49.142;9.232;2023-11-18T11:53:30;11.30;99.40
20526;DHT22;10421;49.142;9.232;2023-11-18T11:56:01;11.40;99.40
20526;DHT22;10421;49.142;9.232;2023-11-18T11:58:33;11.40;99.30
20526;DHT22;10421;49.142;9.232;2023-11-18T12:01:02;11.40;99.20
20526;DHT22;10421;49.142;9.232;2023-11-18T12:03:43;11.40;99.20
20526;DHT22;10421;49.142;9.232;2023-11-18T12:06:13;11.30;99.50
20526;DHT22;10421;49.142;9.232;2023-11-18T12:08:43;11.30;99.50
20526;DHT22;10421;49.142;9.232;2023-11-18T12:11:10;11.20;99.60
20526;DHT22;10421;49.142;9.232;2023-11-18T12:13:38;11.30;99.60
20526;DHT22;10421;49.142;9.232;2023-11-18T12:16:06;11.20;99.70
20526;DHT22;10421;49.142;9.232;2023-11-18T12:18:35;11.30;99.80
20526;DHT22;10421;49.142;9.232;2023-11-18T12:21:03;11.40;99.80
20526;DHT22;10421;49.142;9.232;2023-11-18T12:23:30;11.50;99.80
20526;DHT22;10421;49.142;9.232;2023-11-18T12:26:01;11.50;99.70
20526;DHT22;10421;49.142;9.232;2023-11-18T12:28:29;11.50;99.70
20526;DHT22;10421;49.142;9.232;2023-11-18T12:31:00;11.40;99.80
20526;DHT22;10421;49.142;9.232;2023-11-18T12:34:02;11.30;99.80
20526;DHT22;10421;49.142;9.232;2023-11-18T12:37:04;11.20;99.90
20526;DHT22;10421;49.142;9.232;2023-11-18T12:40:19;11.30;99.90
20526;DHT22;10421;49.142;9.232;2023-11-18T12:43:00;11.40;99.90
20526;DHT22;10421;49.142;9.232;2023-11-18T12:48:43;11.50;99.90
20526;DHT22;10421;49.142;9.232;2023-11-18T12:51:12;11.40;99.80
20526;DHT22;10421;49.142;9.232;2023-11-18T12:53:47;11.40;99.90
20526;DHT22;10421;49.142;9.232;2023-11-18T12:56:14;11.30;99.80
20526;DHT22;10421;49.142;9.232;2023-11-18T12:58:43;11.20;99.90
20526;DHT22;10421;49.142;9.232;2023-11-18T13:01:10;11.30;99.90
20526;DHT22;10421;49.142;9.232;2023-11-18T13:03:39;11.20;99.90
20526;DHT22;10421;49.142;9.232;2023-11-18T13:06:07;11.20;99.90
20526;DHT22;10421;49.142;9.232;2023-11-18T13:08:34;11.10;99.90
20526;DHT22;10421;49.142;9.232;2023-11-18T13:11:02;11.10;99.90
20526;DHT22;10421;49.142;9.232;2023-11-18T13:13:30;11.10;99.90
20526;DHT22;10421;49.142;9.232;2023-11-18T13:15:58;11.00;99.90
20526;DHT22;10421;49.142;9.232;2023-11-18T13:18:25;11.10;99.90
20526;DHT22;10421;49.142;9.232;2023-11-18T13:20:55;11.00;99.90
20526;DHT22;10421;49.142;9.232;2023-11-18T13:23:25;10.90;99.90
20526;DHT22;10421;49.142;9.232;2023-11-18T13:25:54;10.90;99.90
20526;DHT22;10421;49.142;9.232;2023-11-18T13:28:22;10.90;99.90
20526;DHT22;10421;49.142;9.232;2023-11-18T13:30:49;10.90;99.90
20526;DHT22;10421;49.142;9.232;2023-11-18T13:33:18;10.80;99.90
20526;DHT22;10421;49.142;9.232;2023-11-18T13:35:46;10.80;99.90
20526;DHT22;10421;49.142;9.232;2023-11-18T13:38:13;10.90;99.90
20526;DHT22;10421;49.142;9.232;2023-11-18T13:40:43;10.90;99.90
20526;DHT22;10421;49.142;9.232;2023-11-18T13:43:10;10.90;99.90
20526;DHT22;10421;49.142;9.232;2023-11-18T13:45:37;10.90;99.90
20526;DHT22;10421;49.142;9.232;2023-11-18T13:48:05;10.90;99.90
20526;DHT22;10421;49.142;9.232;2023-11-18T13:50:35;11.00;99.90
20526;DHT22;10421;49.142;9.232;2023-11-18T13:53:03;10.90;99.90
20526;DHT22;10421;49.142;9.232;2023-11-18T13:55:31;10.80;99.90
20526;DHT22;10421;49.142;9.232;2023-11-18T13:57:59;10.80;99.90
20526;DHT22;10421;49.142;9.232;2023-11-18T14:00:26;10.80;99.90
20526;DHT22;10421;49.142;9.232;2023-11-18T14:02:54;10.80;99.90
20526;DHT22;10421;49.142;9.232;2023-11-18T14:05:23;10.70;99.90
20526;DHT22;10421;49.142;9.232;2023-11-18T14:07:52;10.80;99.90
20526;DHT22;10421;49.142;9.232;2023-11-18T14:10:21;10.80;99.90
20526;DHT22;10421;49.142;9.232;2023-11-18T14:13:03;10.90;99.90
20526;DHT22;10421;49.142;9.232;2023-11-18T14:15:31;10.90;99.90
20526;DHT22;10421;49.142;9.232;2023-11-18T14:18:00;10.80;99.90
20526;DHT22;10421;49.142;9.232;2023-11-18T14:20:27;10.80;99.90
20526;DHT22;10421;49.142;9.232;2023-11-18T14:22:58;10.80;99.90
20526;DHT22;10421;49.142;9.232;2023-11-18T14:25:24;10.70;99.90
20526;DHT22;10421;49.142;9.232;2023-11-18T14:27:52;10.70;99.90
20526;DHT22;10421;49.142;9.232;2023-11-18T14:30:20;10.80;99.90
20526;DHT22;10421;49.142;9.232;2023-11-18T14:32:49;10.80;99.90
20526;DHT22;10421;49.142;9.232;2023-11-18T14:35:16;10.80;99.90
20526;DHT22;10421;49.142;9.232;2023-11-18T14:37:43;10.80;99.90
20526;DHT22;10421;49.142;9.232;2023-11-18T14:40:12;10.80;99.90
20526;DHT22;10421;49.142;9.232;2023-11-18T14:42:41;10.80;99.90
20526;DHT22;10421;49.142;9.232;2023-11-18T14:45:09;10.80;99.90
20526;DHT22;10421;49.142;9.232;2023-11-18T14:47:37;10.70;99.90
20526;DHT22;10421;49.142;9.232;2023-11-18T14:50:05;10.70;99.90
20526;DHT22;10421;49.142;9.232;2023-11-18T14:52:40;10.60;99.90
20526;DHT22;10421;49.142;9.232;2023-11-18T14:55:09;10.70;99.90
20526;DHT22;10421;49.142;9.232;2023-11-18T14:57:39;10.70;99.90
20526;DHT22;10421;49.142;9.232;2023-11-18T15:00:07;10.70;99.90
20526;DHT22;10421;49.142;9.232;2023-11-18T15:02:35;10.70;99.90
20526;DHT22;10421;49.142;9.232;2023-11-18T15:05:02;10.70;99.90
20526;DHT22;10421;49.142;9.232;2023-11-18T15:07:31;10.70;99.90
20526;DHT22;10421;49.142;9.232;2023-11-18T15:09:57;10.70;99.90
20526;DHT22;10421;49.142;9.232;2023-11-18T15:12:24;10.70;99.90
20526;DHT22;10421;49.142;9.232;2023-11-18T15:14:52;10.70;99.90
20526;DHT22;10421;49.142;9.232;2023-11-18T15:17:19;10.80;99.90
20526;DHT22;10421;49.142;9.232;2023-11-18T15:19:47;10.70;99.90
20526;DHT22;10421;49.142;9.232;2023-11-18T15:22:16;10.70;99.90
20526;DHT22;10421;49.142;9.232;2023-11-18T15:24:42;10.70;99.90
20526;DHT22;10421;49.142;9.232;2023-11-18T15:27:09;10.60;99.90
20526;DHT22;10421;49.142;9.232;2023-11-18T15:29:36;10.70;99.90
20526;DHT22;10421;49.142;9.232;2023-11-18T15:32:12;10.70;99.90
20526;DHT22;10421;49.142;9.232;2023-11-18T15:34:38;10.80;99.90
20526;DHT22;10421;49.142;9.232;2023-11-18T15:37:05;10.80;99.90
20526;DHT22;10421;49.142;9.232;2023-11-18T15:39:32;10.80;99.90
20526;DHT22;10421;49.142;9.232;2023-11-18T15:41:59;10.80;99.90
20526;DHT22;10421;49.142;9.232;2023-11-18T15:44:25;10.80;99.90
20526;DHT22;10421;49.142;9.232;2023-11-18T15:46:54;10.90;99.90
20526;DHT22;10421;49.142;9.232;2023-11-18T15:49:22;10.90;99.90